createdAt,value
2017-09-29T00:00:21.493Z,5.90
2017-09-29T00:02:49.857Z,7.30
2017-09-29T00:05:18.197Z,6.90
2017-09-29T00:07:46.525Z,6.77
2017-09-29T00:10:14.985Z,5.90
2017-09-29T00:12:43.332Z,6.27
2017-09-29T00:15:11.704Z,5.50
2017-09-29T00:17:40.834Z,6.18
2017-09-29T00:20:09.176Z,7.60
2017-09-29T00:22:38.315Z,5.70
2017-09-29T00:25:06.649Z,5.30
2017-09-29T00:27:35.791Z,5.17
2017-09-29T00:30:04.136Z,5.20
2017-09-29T00:32:33.280Z,6.20
2017-09-29T00:35:01.660Z,5.80
2017-09-29T00:37:30.008Z,5.03
2017-09-29T00:39:58.368Z,5.40
2017-09-29T00:42:27.483Z,5.70
2017-09-29T00:44:55.835Z,6.23
2017-09-29T00:47:24.192Z,6.83
2017-09-29T00:49:52.524Z,5.47
2017-09-29T00:52:21.652Z,6.70
2017-09-29T00:54:49.992Z,5.67
2017-09-29T00:57:19.087Z,5.67
2017-09-29T00:59:48.215Z,5.10
2017-09-29T01:02:16.552Z,5.00
2017-09-29T01:04:44.988Z,5.47
2017-09-29T01:07:13.317Z,5.67
2017-09-29T01:09:41.658Z,5.37
2017-09-29T01:12:10.031Z,5.77
2017-09-29T01:14:38.366Z,5.37
2017-09-29T01:17:07.494Z,5.00
2017-09-29T01:19:35.851Z,6.07
2017-09-29T01:22:04.947Z,5.27
2017-09-29T01:24:34.085Z,6.10
2017-09-29T01:27:02.436Z,5.27
2017-09-29T01:29:30.800Z,5.70
2017-09-29T01:31:59.913Z,5.90
2017-09-29T01:34:29.045Z,6.40
2017-09-29T01:36:58.165Z,5.13
2017-09-29T01:39:26.512Z,7.57
2017-09-29T01:41:54.886Z,7.45
2017-09-29T01:44:23.225Z,7.50
2017-09-29T01:46:51.567Z,8.40
2017-09-29T01:49:19.952Z,8.90
2017-09-29T01:51:48.297Z,7.60
2017-09-29T01:54:16.712Z,7.93
2017-09-29T01:56:45.050Z,7.73
2017-09-29T01:59:14.161Z,7.60
2017-09-29T02:01:42.526Z,8.20
2017-09-29T02:04:11.640Z,7.67
2017-09-29T02:06:40.000Z,6.40
2017-09-29T02:09:09.100Z,7.30
2017-09-29T02:11:38.201Z,7.60
2017-09-29T02:14:07.337Z,7.90
2017-09-29T02:16:35.710Z,6.28
2017-09-29T02:19:04.074Z,6.17
2017-09-29T02:21:32.425Z,7.63
2017-09-29T02:24:01.570Z,6.20
2017-09-29T02:26:29.931Z,6.60
2017-09-29T02:28:58.265Z,6.50
2017-09-29T02:31:26.647Z,6.80
2017-09-29T02:33:55.000Z,7.68
2017-09-29T02:36:23.353Z,6.47
2017-09-29T02:38:51.733Z,6.13
2017-09-29T02:41:20.123Z,8.77
2017-09-29T02:43:48.485Z,6.78
2017-09-29T02:46:17.597Z,8.40
2017-09-29T02:48:45.945Z,7.40
2017-09-29T02:51:14.324Z,8.73
2017-09-29T02:53:42.664Z,9.97
2017-09-29T02:56:11.031Z,8.40
2017-09-29T02:58:39.964Z,9.80
2017-09-29T03:01:09.163Z,7.10
2017-09-29T03:03:39.984Z,7.40
2017-09-29T03:06:08.910Z,9.90
2017-09-29T03:08:37.276Z,10.80
2017-09-29T03:11:05.622Z,9.57
2017-09-29T03:13:33.980Z,10.03
2017-09-29T03:16:02.350Z,15.40
2017-09-29T03:18:31.456Z,9.25
2017-09-29T03:21:00.591Z,10.47
2017-09-29T03:23:28.947Z,10.17
2017-09-29T03:25:57.292Z,10.35
2017-09-29T03:28:26.440Z,9.40
2017-09-29T03:30:54.793Z,10.27
2017-09-29T03:33:23.161Z,9.70
2017-09-29T03:35:52.273Z,9.07
2017-09-29T03:38:21.372Z,9.17
2017-09-29T03:40:49.792Z,11.90
2017-09-29T03:43:18.140Z,10.03
2017-09-29T03:45:46.523Z,10.90
2017-09-29T03:48:14.870Z,7.93
2017-09-29T03:50:45.623Z,13.80
2017-09-29T03:53:15.249Z,10.47
2017-09-29T03:55:45.186Z,9.57
2017-09-29T03:58:14.836Z,8.30
2017-09-29T04:00:43.239Z,8.40
2017-09-29T04:03:12.339Z,7.85
2017-09-29T04:05:41.482Z,8.13
2017-09-29T04:08:09.828Z,8.30
2017-09-29T04:10:38.204Z,8.27
2017-09-29T04:13:06.553Z,7.67
2017-09-29T04:15:34.891Z,8.30
2017-09-29T04:18:03.256Z,11.20
2017-09-29T04:20:31.593Z,8.40
2017-09-29T04:22:59.960Z,9.13
2017-09-29T04:25:28.305Z,10.00
2017-09-29T04:27:56.636Z,8.23
2017-09-29T04:30:25.027Z,9.60
2017-09-29T04:32:53.372Z,10.13
2017-09-29T04:35:21.739Z,8.27
2017-09-29T04:37:50.091Z,7.57
2017-09-29T04:40:19.199Z,7.83
2017-09-29T04:42:47.567Z,7.73
2017-09-29T04:45:15.912Z,10.07
2017-09-29T04:47:44.724Z,8.20
2017-09-29T04:50:13.067Z,9.53
2017-09-29T04:52:41.406Z,8.80
2017-09-29T04:55:09.771Z,10.15
2017-09-29T04:57:38.872Z,7.47
2017-09-29T05:00:08.009Z,7.50
2017-09-29T05:02:36.344Z,7.67
2017-09-29T05:05:05.445Z,7.63
2017-09-29T05:07:34.581Z,6.83
2017-09-29T05:10:02.915Z,7.03
2017-09-29T05:12:32.052Z,11.23
2017-09-29T05:15:00.393Z,13.23
2017-09-29T05:17:29.510Z,7.73
2017-09-29T05:19:58.641Z,8.90
2017-09-29T05:22:27.003Z,8.60
2017-09-29T05:24:55.336Z,8.73
2017-09-29T05:27:23.699Z,10.47
2017-09-29T05:29:52.040Z,9.48
2017-09-29T05:32:20.432Z,7.93
2017-09-29T05:34:48.800Z,8.83
2017-09-29T05:37:17.138Z,7.23
2017-09-29T05:39:45.497Z,6.80
2017-09-29T05:42:13.850Z,6.30
2017-09-29T05:44:42.220Z,7.57
2017-09-29T05:47:10.551Z,7.57
2017-09-29T05:49:38.896Z,6.80
2017-09-29T05:52:07.278Z,7.33
2017-09-29T05:54:35.612Z,7.73
2017-09-29T05:57:03.976Z,7.70
2017-09-29T05:59:32.310Z,6.50
2017-09-29T06:02:00.648Z,8.27
2017-09-29T06:04:29.021Z,8.60
2017-09-29T06:06:57.369Z,8.00
2017-09-29T06:09:25.738Z,8.13
2017-09-29T06:11:54.076Z,7.75
2017-09-29T06:14:23.192Z,8.80
2017-09-29T06:16:52.322Z,8.60
2017-09-29T06:19:20.656Z,7.20
2017-09-29T06:21:49.777Z,6.87
2017-09-29T06:24:18.113Z,7.50
2017-09-29T06:26:46.484Z,7.07
2017-09-29T06:29:14.816Z,6.90
2017-09-29T06:31:43.200Z,7.03
2017-09-29T06:34:11.541Z,6.37
2017-09-29T06:36:39.881Z,6.70
2017-09-29T06:39:08.244Z,8.83
2017-09-29T06:41:36.580Z,7.20
2017-09-29T06:44:04.941Z,7.40
2017-09-29T06:46:33.267Z,6.07
2017-09-29T06:49:02.404Z,7.22
2017-09-29T06:51:30.746Z,7.33
2017-09-29T06:53:59.839Z,6.57
2017-09-29T06:56:28.975Z,6.43
2017-09-29T06:58:57.308Z,6.60
2017-09-29T07:01:25.669Z,5.93
2017-09-29T07:03:54.010Z,6.13
2017-09-29T07:06:22.343Z,8.23
2017-09-29T07:08:50.709Z,8.00
2017-09-29T07:11:19.050Z,6.70
2017-09-29T07:13:47.413Z,6.80
2017-09-29T07:16:15.785Z,7.10
2017-09-29T07:18:44.909Z,7.43
2017-09-29T07:21:13.257Z,7.90
2017-09-29T07:23:42.356Z,7.80
2017-09-29T07:26:13.544Z,9.25
2017-09-29T07:28:44.746Z,8.20
2017-09-29T07:31:15.076Z,9.57
2017-09-29T07:33:44.176Z,8.93
2017-09-29T07:36:13.287Z,6.77
2017-09-29T07:38:41.640Z,8.23
2017-09-29T07:41:09.984Z,8.20
2017-09-29T07:43:38.356Z,8.50
2017-09-29T07:46:06.692Z,8.67
2017-09-29T07:48:35.804Z,7.90
2017-09-29T07:51:04.171Z,9.53
2017-09-29T07:53:33.295Z,10.20
2017-09-29T07:56:01.656Z,8.57
2017-09-29T07:58:30.761Z,8.20
2017-09-29T08:00:59.175Z,9.60
2017-09-29T08:03:27.516Z,9.37
2017-09-29T08:05:56.640Z,9.27
2017-09-29T08:08:24.996Z,9.30
2017-09-29T08:10:54.108Z,11.00
2017-09-29T08:13:22.471Z,9.77
2017-09-29T08:15:51.633Z,8.20
2017-09-29T08:18:19.968Z,8.97
2017-09-29T08:20:48.328Z,9.73
2017-09-29T08:23:17.432Z,9.20
2017-09-29T08:25:46.563Z,9.17
2017-09-29T08:28:14.892Z,8.93
2017-09-29T08:30:44.035Z,10.90
2017-09-29T08:33:12.364Z,9.90
2017-09-29T08:35:40.733Z,9.70
2017-09-29T08:38:09.067Z,8.68
2017-09-29T08:40:37.415Z,9.30
2017-09-29T08:43:06.569Z,11.37
2017-09-29T08:45:34.924Z,10.43
2017-09-29T08:48:03.298Z,10.55
2017-09-29T08:50:31.636Z,11.00
2017-09-29T08:52:59.977Z,11.17
2017-09-29T08:55:28.342Z,9.37
2017-09-29T08:57:56.677Z,10.27
2017-09-29T09:00:25.044Z,10.30
2017-09-29T09:02:53.388Z,10.80
2017-09-29T09:05:21.756Z,10.50
2017-09-29T09:07:50.094Z,12.20
2017-09-29T09:10:18.451Z,11.67
2017-09-29T09:12:46.808Z,11.23
2017-09-29T09:15:15.151Z,14.97
2017-09-29T09:17:43.522Z,12.37
2017-09-29T09:20:11.879Z,15.75
2017-09-29T09:22:40.216Z,11.90
2017-09-29T09:25:08.629Z,14.68
2017-09-29T09:27:36.973Z,12.50
2017-09-29T09:30:06.108Z,15.10
2017-09-29T09:32:34.460Z,13.00
2017-09-29T09:35:02.797Z,12.80
2017-09-29T09:37:31.170Z,10.93
2017-09-29T09:39:59.505Z,10.32
2017-09-29T09:42:27.865Z,10.80
2017-09-29T09:44:56.964Z,10.13
2017-09-29T09:47:25.385Z,12.50
2017-09-29T09:49:55.502Z,9.68
2017-09-29T09:52:23.855Z,11.83
2017-09-29T09:54:52.989Z,10.77
2017-09-29T09:57:21.333Z,12.00
2017-09-29T09:59:50.463Z,11.77
2017-09-29T10:02:18.848Z,11.03
2017-09-29T10:04:47.228Z,11.20
2017-09-29T10:07:15.581Z,11.53
2017-09-29T10:09:43.972Z,11.17
2017-09-29T10:12:12.317Z,12.68
2017-09-29T10:14:40.655Z,12.40
2017-09-29T10:17:09.025Z,11.57
2017-09-29T10:19:37.365Z,10.80
2017-09-29T10:22:06.497Z,8.90
2017-09-29T10:24:34.842Z,14.13
2017-09-29T10:27:03.980Z,12.97
2017-09-29T10:29:32.319Z,11.90
2017-09-29T10:32:01.428Z,12.68
2017-09-29T10:34:30.557Z,13.37
2017-09-29T10:36:58.894Z,12.30
2017-09-29T10:39:27.263Z,13.70
2017-09-29T10:41:55.642Z,11.70
2017-09-29T10:44:23.980Z,11.23
2017-09-29T10:46:52.342Z,11.23
2017-09-29T10:49:20.684Z,10.17
2017-09-29T10:51:49.048Z,11.73
2017-09-29T10:54:17.377Z,9.60
2017-09-29T10:56:46.511Z,10.93
2017-09-29T10:59:14.877Z,12.00
2017-09-29T11:01:43.225Z,9.50
2017-09-29T11:04:12.373Z,9.50
2017-09-29T11:06:40.720Z,9.73
2017-09-29T11:09:09.054Z,8.93
2017-09-29T11:11:37.424Z,10.10
2017-09-29T11:14:05.765Z,8.93
2017-09-29T11:16:34.128Z,9.87
2017-09-29T11:19:03.226Z,9.43
2017-09-29T11:21:31.552Z,7.37
2017-09-29T11:23:59.915Z,7.40
2017-09-29T11:26:28.251Z,7.90
2017-09-29T11:28:56.609Z,7.20
2017-09-29T11:31:24.944Z,8.10
2017-09-29T11:33:53.276Z,6.80
2017-09-29T11:36:21.632Z,6.50
2017-09-29T11:38:49.973Z,6.63
2017-09-29T11:41:19.103Z,6.40
2017-09-29T11:43:47.444Z,7.33
2017-09-29T11:46:16.544Z,7.20
2017-09-29T11:48:45.668Z,5.60
2017-09-29T11:51:14.001Z,6.17
2017-09-29T11:53:42.355Z,5.57
2017-09-29T11:56:10.726Z,6.12
2017-09-29T11:58:39.060Z,6.30
2017-09-29T12:01:08.200Z,5.27
2017-09-29T12:03:36.533Z,6.50
2017-09-29T12:06:05.658Z,5.80
2017-09-29T12:08:33.991Z,5.20
2017-09-29T12:11:02.343Z,4.90
2017-09-29T12:13:30.669Z,5.87
2017-09-29T12:15:59.765Z,6.03
2017-09-29T12:18:28.885Z,4.70
2017-09-29T12:20:57.981Z,4.30
2017-09-29T12:23:27.109Z,3.87
2017-09-29T12:25:55.444Z,5.37
2017-09-29T12:28:24.550Z,4.20
2017-09-29T12:30:53.675Z,5.23
2017-09-29T12:33:22.004Z,5.13
2017-09-29T12:35:50.360Z,5.10
2017-09-29T12:38:18.696Z,4.23
2017-09-29T12:40:47.796Z,5.10
2017-09-29T12:43:16.158Z,4.27
2017-09-29T12:45:45.270Z,4.63
2017-09-29T12:48:14.400Z,3.75
2017-09-29T12:50:42.741Z,4.87
2017-09-29T12:53:11.845Z,4.80
2017-09-29T12:55:40.978Z,4.33
2017-09-29T12:58:09.310Z,4.85
2017-09-29T13:00:38.435Z,3.67
2017-09-29T13:03:06.834Z,2.77
2017-09-29T13:05:35.199Z,3.00
2017-09-29T13:08:03.544Z,3.17
2017-09-29T13:10:32.653Z,3.03
2017-09-29T13:13:01.784Z,3.17
2017-09-29T13:15:30.118Z,2.10
2017-09-29T13:17:59.712Z,2.60
2017-09-29T13:20:28.044Z,2.10
2017-09-29T13:22:56.376Z,2.37
2017-09-29T13:25:24.727Z,3.10
2017-09-29T13:27:53.060Z,2.13
2017-09-29T13:30:22.195Z,2.80
2017-09-29T13:32:50.542Z,2.60
2017-09-29T13:35:19.681Z,2.70
2017-09-29T13:37:48.052Z,2.67
2017-09-29T13:40:16.415Z,2.90
2017-09-29T13:42:44.745Z,2.70
2017-09-29T13:45:13.075Z,3.07
2017-09-29T13:47:41.430Z,4.30
2017-09-29T13:50:09.780Z,2.70
2017-09-29T13:52:38.140Z,2.77
2017-09-29T13:55:06.489Z,2.50
2017-09-29T13:57:35.627Z,2.67
2017-09-29T14:00:03.959Z,2.83
2017-09-29T14:02:33.110Z,1.80
2017-09-29T14:05:01.445Z,2.47
2017-09-29T14:07:30.559Z,2.40
2017-09-29T14:09:58.929Z,2.40
2017-09-29T14:12:27.267Z,1.93
2017-09-29T14:14:55.623Z,2.20
2017-09-29T14:17:23.955Z,2.30
2017-09-29T14:19:53.079Z,3.23
2017-09-29T14:22:21.417Z,2.47
2017-09-29T14:24:49.855Z,2.53
2017-09-29T14:27:18.184Z,2.40
2017-09-29T14:29:46.518Z,2.40
2017-09-29T14:32:14.873Z,2.22
2017-09-29T14:34:43.212Z,2.93
2017-09-29T14:37:11.573Z,2.70
2017-09-29T14:39:39.903Z,2.13
2017-09-29T14:42:09.009Z,2.50
2017-09-29T14:44:38.135Z,3.10
2017-09-29T14:47:06.470Z,4.63
2017-09-29T14:49:35.591Z,2.57
2017-09-29T14:52:03.924Z,3.00
2017-09-29T14:54:32.270Z,2.90
2017-09-29T14:57:00.631Z,2.85
2017-09-29T14:59:28.966Z,3.00
2017-09-29T15:01:57.329Z,2.67
2017-09-29T15:04:25.665Z,3.17
2017-09-29T15:06:53.992Z,2.60
2017-09-29T15:09:22.351Z,2.70
2017-09-29T15:11:50.680Z,3.50
2017-09-29T15:14:19.048Z,4.35
2017-09-29T15:16:47.385Z,3.43
2017-09-29T15:19:15.714Z,3.53
2017-09-29T15:21:44.068Z,4.00
2017-09-29T15:24:12.405Z,3.30
2017-09-29T15:26:41.525Z,4.23
2017-09-29T15:29:09.874Z,3.50
2017-09-29T15:31:39.019Z,4.30
2017-09-29T15:34:07.378Z,3.70
2017-09-29T15:36:35.712Z,3.87
2017-09-29T15:39:04.099Z,3.67
2017-09-29T15:41:32.450Z,4.37
2017-09-29T15:44:00.787Z,3.83
2017-09-29T15:46:29.157Z,3.70
2017-09-29T15:48:58.257Z,3.57
2017-09-29T15:51:27.419Z,3.77
2017-09-29T15:53:55.749Z,4.27
2017-09-29T15:56:24.083Z,3.73
2017-09-29T15:58:52.443Z,3.43
2017-09-29T16:01:20.786Z,3.60
2017-09-29T16:03:49.149Z,3.60
2017-09-29T16:06:18.248Z,4.32
2017-09-29T16:08:47.351Z,3.77
2017-09-29T16:11:16.477Z,3.20
2017-09-29T16:13:44.820Z,4.70
2017-09-29T16:16:13.953Z,3.70
2017-09-29T16:18:42.296Z,4.07
2017-09-29T16:21:11.400Z,3.60
2017-09-29T16:23:40.533Z,3.00
2017-09-29T16:26:08.870Z,3.50
2017-09-29T16:28:37.998Z,4.03
2017-09-29T16:31:06.336Z,4.10
2017-09-29T16:33:34.668Z,3.80
2017-09-29T16:36:03.027Z,3.90
2017-09-29T16:38:32.125Z,3.47
2017-09-29T16:41:00.470Z,4.50
2017-09-29T16:43:28.835Z,3.97
2017-09-29T16:45:57.167Z,4.17
2017-09-29T16:48:26.301Z,4.20
2017-09-29T16:50:54.636Z,4.00
2017-09-29T16:53:23.742Z,3.90
2017-09-29T16:55:52.105Z,4.00
2017-09-29T16:58:21.212Z,3.37
2017-09-29T17:00:50.345Z,3.10
2017-09-29T17:03:18.680Z,3.53
2017-09-29T17:05:47.791Z,3.10
2017-09-29T17:08:16.934Z,2.92
2017-09-29T17:10:45.269Z,4.63
2017-09-29T17:13:14.398Z,4.87
2017-09-29T17:15:42.727Z,3.60
2017-09-29T17:18:11.073Z,3.23
2017-09-29T17:20:39.429Z,3.73
2017-09-29T17:23:07.763Z,4.27
2017-09-29T17:25:36.139Z,3.53
2017-09-29T17:28:04.471Z,4.73
2017-09-29T17:30:32.816Z,3.37
2017-09-29T17:33:01.969Z,4.00
2017-09-29T17:35:30.304Z,3.53
2017-09-29T17:37:58.671Z,3.50
2017-09-29T17:40:27.032Z,2.90
2017-09-29T17:42:55.369Z,3.50
2017-09-29T17:45:23.734Z,3.13
2017-09-29T17:47:52.832Z,3.30
2017-09-29T17:50:21.964Z,2.90
2017-09-29T17:52:50.318Z,3.20
2017-09-29T17:55:18.655Z,3.20
2017-09-29T17:57:47.014Z,3.73
2017-09-29T18:00:15.374Z,3.55
2017-09-29T18:02:43.756Z,4.77
2017-09-29T18:05:12.117Z,3.70
2017-09-29T18:07:40.471Z,3.08
2017-09-29T18:10:08.824Z,3.33
2017-09-29T18:12:37.153Z,3.20
2017-09-29T18:15:06.275Z,3.33
2017-09-29T18:17:34.617Z,4.10
2017-09-29T18:20:02.944Z,5.20
2017-09-29T18:22:31.301Z,4.07
2017-09-29T18:24:59.634Z,6.60
2017-09-29T18:27:28.864Z,4.60
2017-09-29T18:29:57.963Z,6.47
2017-09-29T18:32:27.072Z,4.93
2017-09-29T18:34:56.206Z,4.40
2017-09-29T18:37:24.536Z,4.10
2017-09-29T18:39:53.679Z,4.10
2017-09-29T18:42:22.021Z,7.40
2017-09-29T18:45:01.359Z,4.20
2017-09-29T18:47:30.489Z,4.70
2017-09-29T18:49:58.818Z,3.77
2017-09-29T18:52:27.184Z,5.90
2017-09-29T18:54:55.894Z,5.50
2017-09-29T18:57:25.056Z,4.07
2017-09-29T18:59:53.426Z,4.90
2017-09-29T19:02:21.759Z,6.47
2017-09-29T19:04:50.917Z,6.73
2017-09-29T19:07:19.445Z,4.87
2017-09-29T19:09:48.587Z,4.33
2017-09-29T19:12:16.921Z,4.50
2017-09-29T19:14:46.017Z,3.97
2017-09-29T19:17:14.371Z,4.30
2017-09-29T19:19:42.703Z,3.93
2017-09-29T19:22:11.075Z,4.67
2017-09-29T19:24:40.174Z,4.30
2017-09-29T19:27:09.268Z,3.90
2017-09-29T19:29:38.400Z,4.03
2017-09-29T19:32:06.732Z,4.05
2017-09-29T19:34:35.872Z,4.50
2017-09-29T19:37:04.215Z,4.30
2017-09-29T19:39:33.322Z,3.80
2017-09-29T19:42:02.473Z,4.20
2017-09-29T19:44:30.816Z,4.03
2017-09-29T19:46:59.185Z,3.70
2017-09-29T19:49:27.544Z,3.53
2017-09-29T19:51:56.692Z,4.30
2017-09-29T19:54:25.025Z,3.70
2017-09-29T19:56:54.183Z,3.37
2017-09-29T19:59:22.524Z,3.73
2017-09-29T20:01:50.885Z,3.93
2017-09-29T20:04:20.027Z,3.63
2017-09-29T20:06:48.369Z,3.60
2017-09-29T20:09:17.490Z,3.20
2017-09-29T20:11:45.833Z,3.50
2017-09-29T20:14:14.171Z,3.40
2017-09-29T20:16:42.546Z,4.07
2017-09-29T20:19:10.904Z,4.80
2017-09-29T20:21:39.263Z,4.00
2017-09-29T20:24:08.392Z,7.05
2017-09-29T20:26:36.767Z,4.80
2017-09-29T20:29:05.099Z,4.80
2017-09-29T20:31:33.455Z,4.50
2017-09-29T20:34:01.816Z,4.37
2017-09-29T20:36:30.155Z,3.67
2017-09-29T20:38:58.536Z,3.30
2017-09-29T20:41:27.686Z,3.60
2017-09-29T20:43:56.052Z,3.50
2017-09-29T20:46:24.389Z,4.43
2017-09-29T20:48:52.761Z,3.90
2017-09-29T20:51:21.119Z,4.70
2017-09-29T20:53:49.463Z,3.93
2017-09-29T20:56:19.084Z,3.57
2017-09-29T20:58:47.428Z,3.60
2017-09-29T21:01:15.788Z,4.17
2017-09-29T21:03:44.141Z,4.40
2017-09-29T21:06:12.508Z,3.53
2017-09-29T21:08:40.892Z,4.67
2017-09-29T21:11:09.232Z,4.70
2017-09-29T21:13:37.612Z,3.90
2017-09-29T21:16:05.954Z,3.93
2017-09-29T21:18:34.327Z,4.12
2017-09-29T21:21:02.670Z,4.23
2017-09-29T21:23:31.775Z,3.10
2017-09-29T21:26:00.913Z,4.23
2017-09-29T21:28:29.253Z,3.90
2017-09-29T21:30:57.639Z,4.60
2017-09-29T21:33:25.976Z,5.13
2017-09-29T21:35:54.319Z,5.60
2017-09-29T21:38:22.683Z,3.75
2017-09-29T21:40:51.024Z,4.60
2017-09-29T21:43:19.386Z,4.40
2017-09-29T21:45:47.737Z,4.43
2017-09-29T21:48:16.095Z,3.60
2017-09-29T21:50:45.203Z,4.33
2017-09-29T21:53:13.567Z,3.50
2017-09-29T21:55:42.708Z,3.60
2017-09-29T21:58:11.068Z,4.20
2017-09-29T22:00:39.475Z,4.90
2017-09-29T22:03:07.816Z,4.97
2017-09-29T22:05:36.162Z,4.20
2017-09-29T22:08:04.533Z,3.85
2017-09-29T22:10:32.872Z,4.47
2017-09-29T22:13:01.233Z,3.50
2017-09-29T22:15:30.332Z,5.53
2017-09-29T22:17:59.435Z,4.40
2017-09-29T22:20:27.800Z,5.30
2017-09-29T22:22:56.901Z,3.97
2017-09-29T22:25:26.020Z,4.67
2017-09-29T22:27:54.374Z,5.53
2017-09-29T22:30:23.482Z,4.60
2017-09-29T22:32:52.621Z,5.00
2017-09-29T22:35:20.955Z,4.40
2017-09-29T22:37:50.092Z,6.07
2017-09-29T22:40:18.422Z,4.90
2017-09-29T22:42:46.761Z,7.93
2017-09-29T22:45:15.124Z,7.53
2017-09-29T22:47:43.457Z,6.90
2017-09-29T22:50:11.821Z,7.23
2017-09-29T22:52:40.156Z,9.40
2017-09-29T22:55:08.492Z,9.48
2017-09-29T22:57:36.858Z,12.07
2017-09-29T23:00:05.201Z,12.00
2017-09-29T23:02:33.563Z,14.83
2017-09-29T23:05:02.677Z,12.90
2017-09-29T23:07:31.051Z,15.07
2017-09-29T23:09:59.397Z,10.57
2017-09-29T23:12:27.742Z,9.60
2017-09-29T23:14:56.113Z,10.57
2017-09-29T23:17:24.492Z,8.40
2017-09-29T23:19:52.865Z,9.10
2017-09-29T23:22:21.219Z,7.47
2017-09-29T23:24:50.354Z,7.90
2017-09-29T23:27:18.684Z,8.02
2017-09-29T23:29:47.015Z,7.07
2017-09-29T23:32:15.387Z,7.60
2017-09-29T23:34:43.719Z,8.75
2017-09-29T23:37:12.094Z,8.33
2017-09-29T23:39:40.444Z,9.40
2017-09-29T23:42:08.845Z,9.57
2017-09-29T23:44:37.216Z,12.00
2017-09-29T23:47:05.645Z,10.25
2017-09-29T23:49:34.068Z,10.60
2017-09-29T23:52:02.457Z,15.97
2017-09-29T23:54:30.912Z,14.40
2017-09-29T23:56:59.248Z,13.40
2017-09-29T23:59:28.439Z,12.27
